sensor_id;sensor_type;location;lat;lon;timestamp;pressure;altitude;pressure_sealevel;temperature;humidity
6974;BME280;3527;52.376;8.990;2022-08-03T00:02:32;101188.84;;;19.48;100.00
6974;BME280;3527;52.376;8.990;2022-08-03T00:05:19;101194.53;;;19.48;100.00
6974;BME280;3527;52.376;8.990;2022-08-03T00:08:06;101198.59;;;19.43;100.00
6974;BME280;3527;52.376;8.990;2022-08-03T00:10:54;101197.41;;;19.40;100.00
6974;BME280;3527;52.376;8.990;2022-08-03T00:13:41;101192.97;;;19.39;100.00
6974;BME280;3527;52.376;8.990;2022-08-03T00:16:28;101199.53;;;19.33;100.00
6974;BME280;3527;52.376;8.990;2022-08-03T00:19:15;101187.41;;;19.32;100.00
6974;BME280;3527;52.376;8.990;2022-08-03T00:22:02;101188.25;;;19.29;100.00
6974;BME280;3527;52.376;8.990;2022-08-03T00:24:49;101190.31;;;19.25;100.00
6974;BME280;3527;52.376;8.990;2022-08-03T00:27:36;101185.06;;;19.24;100.00
6974;BME280;3527;52.376;8.990;2022-08-03T00:30:24;101184.69;;;19.22;100.00
6974;BME280;3527;52.376;8.990;2022-08-03T00:33:16;101188.75;;;19.21;100.00
6974;BME280;3527;52.376;8.990;2022-08-03T00:36:05;101187.16;;;19.16;100.00
6974;BME280;3527;52.376;8.990;2022-08-03T00:38:53;101180.72;;;19.12;100.00
6974;BME280;3527;52.376;8.990;2022-08-03T00:41:40;101182.78;;;19.08;100.00
6974;BME280;3527;52.376;8.990;2022-08-03T00:44:27;101186.09;;;19.03;100.00
6974;BME280;3527;52.376;8.990;2022-08-03T00:47:14;101177.97;;;19.05;100.00
6974;BME280;3527;52.376;8.990;2022-08-03T00:50:02;101187.69;;;19.04;100.00
6974;BME280;3527;52.376;8.990;2022-08-03T00:52:52;101183.72;;;18.98;100.00
6974;BME280;3527;52.376;8.990;2022-08-03T00:55:40;101186.16;;;18.96;100.00
6974;BME280;3527;52.376;8.990;2022-08-03T00:58:28;101181.31;;;18.96;100.00
6974;BME280;3527;52.376;8.990;2022-08-03T01:01:15;101172.84;;;18.93;100.00
6974;BME280;3527;52.376;8.990;2022-08-03T01:04:03;101177.34;;;18.90;100.00
6974;BME280;3527;52.376;8.990;2022-08-03T01:07:02;101172.47;;;18.91;100.00
6974;BME280;3527;52.376;8.990;2022-08-03T01:13:08;101168.84;;;18.87;100.00
6974;BME280;3527;52.376;8.990;2022-08-03T01:16:27;101168.09;;;18.82;100.00
6974;BME280;3527;52.376;8.990;2022-08-03T01:32:12;101162.53;;;18.72;100.00
6974;BME280;3527;52.376;8.990;2022-08-03T01:35:31;101163.38;;;18.69;100.00
6974;BME280;3527;52.376;8.990;2022-08-03T01:38:27;101162.94;;;18.70;100.00
6974;BME280;3527;52.376;8.990;2022-08-03T01:41:28;101163.72;;;18.74;100.00
6974;BME280;3527;52.376;8.990;2022-08-03T01:44:16;101164.94;;;18.73;100.00
6974;BME280;3527;52.376;8.990;2022-08-03T01:47:19;101163.78;;;18.67;100.00
6974;BME280;3527;52.376;8.990;2022-08-03T01:50:08;101171.88;;;18.62;100.00
6974;BME280;3527;52.376;8.990;2022-08-03T01:52:57;101163.81;;;18.60;100.00
6974;BME280;3527;52.376;8.990;2022-08-03T01:55:46;101167.09;;;18.55;100.00
6974;BME280;3527;52.376;8.990;2022-08-03T01:58:35;101165.44;;;18.58;100.00
6974;BME280;3527;52.376;8.990;2022-08-03T02:01:23;101164.25;;;18.55;100.00
6974;BME280;3527;52.376;8.990;2022-08-03T02:04:31;101163.06;;;18.52;100.00
6974;BME280;3527;52.376;8.990;2022-08-03T02:07:19;101156.63;;;18.48;100.00
6974;BME280;3527;52.376;8.990;2022-08-03T02:10:08;101162.31;;;18.45;100.00
6974;BME280;3527;52.376;8.990;2022-08-03T02:12:59;101156.31;;;18.39;100.00
6974;BME280;3527;52.376;8.990;2022-08-03T02:15:47;101162.38;;;18.34;100.00
6974;BME280;3527;52.376;8.990;2022-08-03T02:18:35;101155.13;;;18.37;100.00
6974;BME280;3527;52.376;8.990;2022-08-03T02:21:27;101157.53;;;18.35;100.00
6974;BME280;3527;52.376;8.990;2022-08-03T02:24:35;101160.81;;;18.30;100.00
6974;BME280;3527;52.376;8.990;2022-08-03T02:27:25;101161.25;;;18.25;100.00
6974;BME280;3527;52.376;8.990;2022-08-03T02:30:12;101157.63;;;18.24;100.00
6974;BME280;3527;52.376;8.990;2022-08-03T02:33:00;101158.84;;;18.23;100.00
6974;BME280;3527;52.376;8.990;2022-08-03T02:35:48;101142.28;;;18.25;100.00
6974;BME280;3527;52.376;8.990;2022-08-03T02:38:40;101147.94;;;18.25;100.00
6974;BME280;3527;52.376;8.990;2022-08-03T02:41:37;101146.75;;;18.19;100.00
6974;BME280;3527;52.376;8.990;2022-08-03T02:44:29;101152.88;;;18.14;100.00
6974;BME280;3527;52.376;8.990;2022-08-03T02:47:21;101142.00;;;18.09;100.00
6974;BME280;3527;52.376;8.990;2022-08-03T02:50:10;101144.81;;;18.09;100.00
6974;BME280;3527;52.376;8.990;2022-08-03T02:52:58;101151.69;;;18.04;100.00
6974;BME280;3527;52.376;8.990;2022-08-03T02:55:48;101140.84;;;17.99;100.00
6974;BME280;3527;52.376;8.990;2022-08-03T02:58:38;101148.09;;;18.00;100.00
6974;BME280;3527;52.376;8.990;2022-08-03T03:01:27;101145.25;;;18.04;100.00
6974;BME280;3527;52.376;8.990;2022-08-03T03:04:15;101150.91;;;18.00;100.00
6974;BME280;3527;52.376;8.990;2022-08-03T03:07:06;101144.06;;;17.98;100.00
6974;BME280;3527;52.376;8.990;2022-08-03T03:09:54;101146.88;;;18.01;100.00
6974;BME280;3527;52.376;8.990;2022-08-03T03:12:42;101144.44;;;18.03;100.00
6974;BME280;3527;52.376;8.990;2022-08-03T03:15:31;101142.00;;;18.05;100.00
6974;BME280;3527;52.376;8.990;2022-08-03T03:18:22;101145.66;;;18.02;100.00
6974;BME280;3527;52.376;8.990;2022-08-03T03:21:12;101133.97;;;18.00;100.00
6974;BME280;3527;52.376;8.990;2022-08-03T03:24:00;101150.09;;;18.03;100.00
6974;BME280;3527;52.376;8.990;2022-08-03T03:26:48;101143.22;;;18.04;100.00
6974;BME280;3527;52.376;8.990;2022-08-03T03:29:36;101153.69;;;18.07;100.00
6974;BME280;3527;52.376;8.990;2022-08-03T03:32:26;101152.09;;;18.06;100.00
6974;BME280;3527;52.376;8.990;2022-08-03T03:35:14;101157.72;;;18.06;100.00
6974;BME280;3527;52.376;8.990;2022-08-03T03:38:02;101158.16;;;18.08;100.00
6974;BME280;3527;52.376;8.990;2022-08-03T03:40:49;101157.72;;;18.06;100.00
6974;BME280;3527;52.376;8.990;2022-08-03T03:43:36;101154.50;;;18.11;100.00
6974;BME280;3527;52.376;8.990;2022-08-03T03:46:23;101158.97;;;18.09;100.00
6974;BME280;3527;52.376;8.990;2022-08-03T03:49:11;101152.88;;;18.10;100.00
6974;BME280;3527;52.376;8.990;2022-08-03T03:51:58;101148.03;;;18.07;100.00
6974;BME280;3527;52.376;8.990;2022-08-03T03:54:45;101151.69;;;18.04;100.00
6974;BME280;3527;52.376;8.990;2022-08-03T03:57:33;101154.53;;;18.04;100.00
6974;BME280;3527;52.376;8.990;2022-08-03T04:00:21;101163.00;;;18.04;100.00
6974;BME280;3527;52.376;8.990;2022-08-03T04:03:09;101154.53;;;18.04;100.00
6974;BME280;3527;52.376;8.990;2022-08-03T04:05:57;101162.19;;;18.04;100.00
6974;BME280;3527;52.376;8.990;2022-08-03T04:09:17;101157.34;;;18.04;100.00
6974;BME280;3527;52.376;8.990;2022-08-03T04:12:25;101165.84;;;18.01;100.00
6974;BME280;3527;52.376;8.990;2022-08-03T04:15:14;101169.47;;;18.01;100.00
6974;BME280;3527;52.376;8.990;2022-08-03T04:18:03;101173.09;;;18.05;100.00
6974;BME280;3527;52.376;8.990;2022-08-03T04:20:52;101175.47;;;18.14;100.00
6974;BME280;3527;52.376;8.990;2022-08-03T04:23:43;101164.16;;;18.14;100.00
6974;BME280;3527;52.376;8.990;2022-08-03T04:26:35;101169.78;;;18.17;100.00
6974;BME280;3527;52.376;8.990;2022-08-03T04:29:25;101171.75;;;18.24;100.00
6974;BME280;3527;52.376;8.990;2022-08-03T04:32:12;101185.84;;;18.31;100.00
6974;BME280;3527;52.376;8.990;2022-08-03T04:35:00;101190.25;;;18.39;100.00
6974;BME280;3527;52.376;8.990;2022-08-03T04:37:50;101185.75;;;18.45;100.00
6974;BME280;3527;52.376;8.990;2022-08-03T04:40:40;101188.97;;;18.47;100.00
6974;BME280;3527;52.376;8.990;2022-08-03T04:43:29;101184.47;;;18.53;100.00
6974;BME280;3527;52.376;8.990;2022-08-03T04:46:22;101189.25;;;18.60;100.00
6974;BME280;3527;52.376;8.990;2022-08-03T04:49:10;101192.84;;;18.71;100.00
6974;BME280;3527;52.376;8.990;2022-08-03T04:51:58;101187.88;;;18.82;100.00
6974;BME280;3527;52.376;8.990;2022-08-03T04:54:45;101180.56;;;18.89;100.00
6974;BME280;3527;52.376;8.990;2022-08-03T04:57:36;101177.25;;;18.97;100.00
6974;BME280;3527;52.376;8.990;2022-08-03T05:00:24;101186.88;;;19.03;100.00
6974;BME280;3527;52.376;8.990;2022-08-03T05:03:11;101181.94;;;19.11;100.00
6974;BME280;3527;52.376;8.990;2022-08-03T05:06:10;101178.66;;;19.16;100.00
6974;BME280;3527;52.376;8.990;2022-08-03T05:08:57;101175.69;;;19.30;100.00
6974;BME280;3527;52.376;8.990;2022-08-03T05:11:44;101188.16;;;19.36;100.00
6974;BME280;3527;52.376;8.990;2022-08-03T05:14:33;101174.31;;;19.45;100.00
6974;BME280;3527;52.376;8.990;2022-08-03T05:17:21;101175.44;;;19.52;100.00
6974;BME280;3527;52.376;8.990;2022-08-03T05:20:09;101174.16;;;19.60;100.00
6974;BME280;3527;52.376;8.990;2022-08-03T05:22:57;101170.00;;;19.68;100.00
6974;BME280;3527;52.376;8.990;2022-08-03T05:25:44;101166.63;;;19.80;100.00
6974;BME280;3527;52.376;8.990;2022-08-03T05:28:36;101169.03;;;19.82;100.00
6974;BME280;3527;52.376;8.990;2022-08-03T05:31:23;101170.16;;;19.88;100.00
6974;BME280;3527;52.376;8.990;2022-08-03T05:34:10;101175.28;;;19.96;100.00
6974;BME280;3527;52.376;8.990;2022-08-03T05:36:57;101178.78;;;20.08;100.00
6974;BME280;3527;52.376;8.990;2022-08-03T05:39:44;101183.13;;;20.16;100.00
6974;BME280;3527;52.376;8.990;2022-08-03T05:42:31;101184.59;;;20.24;100.00
6974;BME280;3527;52.376;8.990;2022-08-03T05:45:18;101185.69;;;20.33;100.00
6974;BME280;3527;52.376;8.990;2022-08-03T05:48:05;101185.75;;;20.57;100.00
6974;BME280;3527;52.376;8.990;2022-08-03T05:50:52;101191.88;;;20.79;99.75
6974;BME280;3527;52.376;8.990;2022-08-03T05:53:40;101187.63;;;20.90;99.55
6974;BME280;3527;52.376;8.990;2022-08-03T05:56:28;101188.09;;;21.09;99.42
6974;BME280;3527;52.376;8.990;2022-08-03T05:59:15;101197.28;;;21.40;98.58
6974;BME280;3527;52.376;8.990;2022-08-03T06:02:22;101194.22;;;21.70;96.12
6974;BME280;3527;52.376;8.990;2022-08-03T06:05:09;101197.28;;;21.99;95.09
6974;BME280;3527;52.376;8.990;2022-08-03T06:07:56;101198.88;;;22.20;93.73
6974;BME280;3527;52.376;8.990;2022-08-03T06:10:43;101195.78;;;22.47;91.97
6974;BME280;3527;52.376;8.990;2022-08-03T06:13:30;101194.00;;;22.69;89.35
6974;BME280;3527;52.376;8.990;2022-08-03T06:16:18;101200.53;;;23.02;87.51
6974;BME280;3527;52.376;8.990;2022-08-03T06:19:04;101183.59;;;23.11;84.71
6974;BME280;3527;52.376;8.990;2022-08-03T06:21:52;101185.38;;;23.05;83.58
6974;BME280;3527;52.376;8.990;2022-08-03T06:24:40;101190.00;;;23.16;83.28
6974;BME280;3527;52.376;8.990;2022-08-03T06:27:38;101202.25;;;23.29;83.05
6974;BME280;3527;52.376;8.990;2022-08-03T06:30:25;101202.06;;;23.36;82.43
6974;BME280;3527;52.376;8.990;2022-08-03T06:33:13;101210.03;;;23.57;81.20
6974;BME280;3527;52.376;8.990;2022-08-03T06:36:00;101207.47;;;23.76;79.65
6974;BME280;3527;52.376;8.990;2022-08-03T06:38:47;101200.16;;;23.74;77.92
6974;BME280;3527;52.376;8.990;2022-08-03T06:41:34;101200.78;;;23.95;76.21
6974;BME280;3527;52.376;8.990;2022-08-03T06:44:30;101209.94;;;24.15;76.27
6974;BME280;3527;52.376;8.990;2022-08-03T06:47:17;101210.97;;;24.21;75.72
6974;BME280;3527;52.376;8.990;2022-08-03T06:50:05;101216.81;;;24.30;74.26
6974;BME280;3527;52.376;8.990;2022-08-03T06:53:04;101208.34;;;24.14;73.04
6974;BME280;3527;52.376;8.990;2022-08-03T06:55:51;101216.47;;;24.16;73.43
6974;BME280;3527;52.376;8.990;2022-08-03T06:58:41;101222.28;;;24.25;73.34
6974;BME280;3527;52.376;8.990;2022-08-03T07:01:28;101220.34;;;24.22;71.99
6974;BME280;3527;52.376;8.990;2022-08-03T07:04:15;101221.03;;;24.13;71.79
6974;BME280;3527;52.376;8.990;2022-08-03T07:07:02;101237.22;;;24.16;73.12
6974;BME280;3527;52.376;8.990;2022-08-03T07:09:50;101242.50;;;24.30;72.50
6974;BME280;3527;52.376;8.990;2022-08-03T07:12:43;101233.63;;;24.41;70.83
6974;BME280;3527;52.376;8.990;2022-08-03T07:15:42;101231.00;;;24.59;69.98
6974;BME280;3527;52.376;8.990;2022-08-03T07:18:41;101239.22;;;24.70;69.52
6974;BME280;3527;52.376;8.990;2022-08-03T07:21:29;101256.13;;;24.77;70.58
6974;BME280;3527;52.376;8.990;2022-08-03T07:24:16;101252.09;;;24.87;70.97
6974;BME280;3527;52.376;8.990;2022-08-03T07:27:03;101257.13;;;24.83;70.70
6974;BME280;3527;52.376;8.990;2022-08-03T07:29:51;101259.19;;;24.95;70.34
6974;BME280;3527;52.376;8.990;2022-08-03T07:32:38;101258.31;;;24.99;70.59
6974;BME280;3527;52.376;8.990;2022-08-03T07:35:36;101258.38;;;25.08;69.93
6974;BME280;3527;52.376;8.990;2022-08-03T07:38:23;101261.31;;;25.30;70.17
6974;BME280;3527;52.376;8.990;2022-08-03T07:41:11;101246.63;;;25.40;68.92
6974;BME280;3527;52.376;8.990;2022-08-03T07:43:58;101242.44;;;25.67;67.42
6974;BME280;3527;52.376;8.990;2022-08-03T07:46:47;101256.81;;;25.98;67.02
6974;BME280;3527;52.376;8.990;2022-08-03T07:49:38;101247.75;;;25.99;66.17
6974;BME280;3527;52.376;8.990;2022-08-03T07:52:25;101240.25;;;26.24;65.41
6974;BME280;3527;52.376;8.990;2022-08-03T07:55:31;101251.41;;;26.53;65.10
6974;BME280;3527;52.376;8.990;2022-08-03T07:58:18;101251.31;;;26.65;64.62
6974;BME280;3527;52.376;8.990;2022-08-03T08:01:10;101238.63;;;26.75;62.77
6974;BME280;3527;52.376;8.990;2022-08-03T08:04:00;101239.94;;;26.93;62.46
6974;BME280;3527;52.376;8.990;2022-08-03T08:06:47;101242.13;;;26.79;61.70
6974;BME280;3527;52.376;8.990;2022-08-03T08:09:34;101236.50;;;27.07;61.06
6974;BME280;3527;52.376;8.990;2022-08-03T08:12:22;101247.16;;;27.06;61.58
6974;BME280;3527;52.376;8.990;2022-08-03T08:15:09;101258.19;;;27.26;61.86
6974;BME280;3527;52.376;8.990;2022-08-03T08:17:58;101247.03;;;27.37;60.72
6974;BME280;3527;52.376;8.990;2022-08-03T08:20:45;101242.25;;;27.34;60.01
6974;BME280;3527;52.376;8.990;2022-08-03T08:23:32;101240.06;;;27.48;59.46
6974;BME280;3527;52.376;8.990;2022-08-03T08:26:28;101247.53;;;27.45;59.57
6974;BME280;3527;52.376;8.990;2022-08-03T08:29:16;101252.16;;;27.88;59.72
6974;BME280;3527;52.376;8.990;2022-08-03T08:32:04;101240.69;;;27.88;58.67
6974;BME280;3527;52.376;8.990;2022-08-03T08:34:53;101248.50;;;27.97;58.85
6974;BME280;3527;52.376;8.990;2022-08-03T08:37:40;101228.56;;;27.84;57.43
6974;BME280;3527;52.376;8.990;2022-08-03T08:40:27;101250.19;;;28.31;57.94
6974;BME280;3527;52.376;8.990;2022-08-03T08:43:15;101239.88;;;28.57;57.02
6974;BME280;3527;52.376;8.990;2022-08-03T08:46:02;101247.31;;;29.06;56.31
6974;BME280;3527;52.376;8.990;2022-08-03T08:48:52;101236.53;;;28.92;55.66
6974;BME280;3527;52.376;8.990;2022-08-03T08:51:42;101237.16;;;28.96;55.62
6974;BME280;3527;52.376;8.990;2022-08-03T08:54:46;101229.63;;;29.22;54.88
6974;BME280;3527;52.376;8.990;2022-08-03T08:57:38;101240.53;;;29.18;55.66
6974;BME280;3527;52.376;8.990;2022-08-03T09:00:29;101241.31;;;29.43;55.38
6974;BME280;3527;52.376;8.990;2022-08-03T09:03:17;101232.78;;;29.24;55.15
6974;BME280;3527;52.376;8.990;2022-08-03T09:06:15;101237.88;;;29.30;55.57
6974;BME280;3527;52.376;8.990;2022-08-03T09:09:02;101215.00;;;29.11;53.73
6974;BME280;3527;52.376;8.990;2022-08-03T09:11:51;101215.34;;;29.28;53.76
6974;BME280;3527;52.376;8.990;2022-08-03T09:15:18;101218.72;;;30.04;53.00
6974;BME280;3527;52.376;8.990;2022-08-03T09:18:06;101204.88;;;29.78;52.42
6974;BME280;3527;52.376;8.990;2022-08-03T09:21:12;101206.38;;;29.89;52.18
6974;BME280;3527;52.376;8.990;2022-08-03T09:24:20;101225.56;;;30.21;53.20
6974;BME280;3527;52.376;8.990;2022-08-03T09:27:27;101201.09;;;30.31;50.97
6974;BME280;3527;52.376;8.990;2022-08-03T09:30:16;101216.59;;;30.49;51.82
6974;BME280;3527;52.376;8.990;2022-08-03T09:33:20;101228.41;;;30.51;53.17
6974;BME280;3527;52.376;8.990;2022-08-03T09:36:07;101204.06;;;30.52;51.43
6974;BME280;3527;52.376;8.990;2022-08-03T09:39:08;101203.28;;;30.36;51.20
6974;BME280;3527;52.376;8.990;2022-08-03T09:42:07;101210.03;;;30.33;50.52
6974;BME280;3527;52.376;8.990;2022-08-03T09:44:54;101209.03;;;30.51;50.71
6974;BME280;3527;52.376;8.990;2022-08-03T09:47:41;101215.84;;;31.03;51.12
6974;BME280;3527;52.376;8.990;2022-08-03T09:50:47;101214.59;;;31.25;51.30
6974;BME280;3527;52.376;8.990;2022-08-03T09:53:45;101210.59;;;31.89;50.14
6974;BME280;3527;52.376;8.990;2022-08-03T09:56:46;101190.53;;;31.54;48.88
6974;BME280;3527;52.376;8.990;2022-08-03T09:59:33;101190.16;;;31.46;48.66
6974;BME280;3527;52.376;8.990;2022-08-03T10:02:25;101183.09;;;30.86;48.83
6974;BME280;3527;52.376;8.990;2022-08-03T10:05:12;101194.91;;;31.49;48.79
6974;BME280;3527;52.376;8.990;2022-08-03T10:08:13;101205.13;;;31.71;49.83
6974;BME280;3527;52.376;8.990;2022-08-03T10:11:01;101188.47;;;31.80;48.53
6974;BME280;3527;52.376;8.990;2022-08-03T10:13:48;101188.47;;;32.38;49.05
6974;BME280;3527;52.376;8.990;2022-08-03T10:16:37;101179.03;;;32.43;46.99
6974;BME280;3527;52.376;8.990;2022-08-03T10:19:24;101187.50;;;32.20;47.82
6974;BME280;3527;52.376;8.990;2022-08-03T10:22:28;101168.78;;;32.10;47.13
6974;BME280;3527;52.376;8.990;2022-08-03T10:25:18;101186.84;;;32.74;46.24
6974;BME280;3527;52.376;8.990;2022-08-03T10:28:05;101153.78;;;32.38;45.46
6974;BME280;3527;52.376;8.990;2022-08-03T10:30:55;101153.78;;;32.38;45.43
6974;BME280;3527;52.376;8.990;2022-08-03T10:33:43;101164.03;;;32.81;45.98
6974;BME280;3527;52.376;8.990;2022-08-03T10:36:39;101155.00;;;32.63;45.33
6974;BME280;3527;52.376;8.990;2022-08-03T10:39:28;101142.28;;;32.49;44.97
6974;BME280;3527;52.376;8.990;2022-08-03T10:42:23;101150.28;;;33.25;44.03
6974;BME280;3527;52.376;8.990;2022-08-03T10:45:17;101140.72;;;32.96;44.43
6974;BME280;3527;52.376;8.990;2022-08-03T10:48:08;101164.28;;;33.37;45.38
6974;BME280;3527;52.376;8.990;2022-08-03T10:50:56;101120.94;;;32.83;43.49
6974;BME280;3527;52.376;8.990;2022-08-03T10:53:43;101129.81;;;32.74;43.71
6974;BME280;3527;52.376;8.990;2022-08-03T10:56:41;101144.94;;;33.01;44.44
6974;BME280;3527;52.376;8.990;2022-08-03T11:00:00;101134.56;;;33.37;42.39
6974;BME280;3527;52.376;8.990;2022-08-03T11:03:09;101109.72;;;32.54;42.62
6974;BME280;3527;52.376;8.990;2022-08-03T11:06:18;101122.88;;;31.86;43.80
6974;BME280;3527;52.376;8.990;2022-08-03T11:11:55;101121.34;;;31.91;44.90
6974;BME280;3527;52.376;8.990;2022-08-03T11:14:47;101125.22;;;32.19;44.63
6974;BME280;3527;52.376;8.990;2022-08-03T11:17:35;101119.16;;;32.92;43.51
6974;BME280;3527;52.376;8.990;2022-08-03T11:20:52;101121.75;;;32.90;43.37
6974;BME280;3527;52.376;8.990;2022-08-03T11:23:41;101107.47;;;32.75;42.57
6974;BME280;3527;52.376;8.990;2022-08-03T11:33:04;101113.56;;;32.82;43.45
6974;BME280;3527;52.376;8.990;2022-08-03T11:36:00;101136.78;;;32.94;44.50
6974;BME280;3527;52.376;8.990;2022-08-03T11:39:20;101137.97;;;33.35;44.08
6974;BME280;3527;52.376;8.990;2022-08-03T11:45:10;101112.75;;;33.64;41.23
6974;BME280;3527;52.376;8.990;2022-08-03T11:48:11;101102.75;;;33.65;41.27
6974;BME280;3527;52.376;8.990;2022-08-03T11:51:03;101127.78;;;33.79;42.28
6974;BME280;3527;52.376;8.990;2022-08-03T11:53:55;101110.16;;;33.88;41.89
6974;BME280;3527;52.376;8.990;2022-08-03T11:56:48;101122.25;;;34.26;41.67
6974;BME280;3527;52.376;8.990;2022-08-03T11:59:36;101086.44;;;33.62;40.50
6974;BME280;3527;52.376;8.990;2022-08-03T12:02:24;101106.44;;;33.60;41.86
6974;BME280;3527;52.376;8.990;2022-08-03T12:05:11;101105.44;;;33.85;41.15
6974;BME280;3527;52.376;8.990;2022-08-03T12:07:58;101126.50;;;33.97;42.84
6974;BME280;3527;52.376;8.990;2022-08-03T12:10:53;101111.47;;;33.82;42.92
6974;BME280;3527;52.376;8.990;2022-08-03T12:13:44;101094.63;;;33.97;41.35
6974;BME280;3527;52.376;8.990;2022-08-03T12:16:52;101103.03;;;33.72;41.85
6974;BME280;3527;52.376;8.990;2022-08-03T12:19:42;101114.88;;;33.80;42.99
6974;BME280;3527;52.376;8.990;2022-08-03T12:22:31;101061.41;;;32.60;41.84
6974;BME280;3527;52.376;8.990;2022-08-03T12:25:26;101094.84;;;33.48;41.98
6974;BME280;3527;52.376;8.990;2022-08-03T12:28:25;101099.06;;;34.31;42.02
6974;BME280;3527;52.376;8.990;2022-08-03T12:31:23;101093.78;;;34.30;41.36
6974;BME280;3527;52.376;8.990;2022-08-03T12:34:11;101072.22;;;33.58;41.59
6974;BME280;3527;52.376;8.990;2022-08-03T12:37:03;101103.25;;;34.53;41.66
6974;BME280;3527;52.376;8.990;2022-08-03T12:40:08;101083.56;;;34.98;40.41
6974;BME280;3527;52.376;8.990;2022-08-03T12:43:10;101056.38;;;34.21;39.49
6974;BME280;3527;52.376;8.990;2022-08-03T12:46:11;101069.13;;;34.81;39.13
6974;BME280;3527;52.376;8.990;2022-08-03T12:52:01;101068.22;;;34.23;40.13
6974;BME280;3527;52.376;8.990;2022-08-03T12:54:58;101065.91;;;34.04;39.97
6974;BME280;3527;52.376;8.990;2022-08-03T12:57:48;101071.94;;;34.18;40.57
6974;BME280;3527;52.376;8.990;2022-08-03T13:00:54;101055.28;;;34.40;38.81
6974;BME280;3527;52.376;8.990;2022-08-03T13:03:46;101046.69;;;34.82;38.39
6974;BME280;3527;52.376;8.990;2022-08-03T13:07:02;101076.69;;;35.07;40.12
6974;BME280;3527;52.376;8.990;2022-08-03T13:09:54;101059.78;;;35.05;38.84
6974;BME280;3527;52.376;8.990;2022-08-03T13:12:47;101041.03;;;34.48;38.82
6974;BME280;3527;52.376;8.990;2022-08-03T13:15:36;101047.97;;;34.12;39.22
6974;BME280;3527;52.376;8.990;2022-08-03T13:18:33;101056.31;;;34.54;39.84
6974;BME280;3527;52.376;8.990;2022-08-03T13:21:20;101044.75;;;34.32;39.78
6974;BME280;3527;52.376;8.990;2022-08-03T13:24:11;101025.34;;;33.93;39.15
6974;BME280;3527;52.376;8.990;2022-08-03T13:27:12;101061.59;;;34.50;40.39
6974;BME280;3527;52.376;8.990;2022-08-03T13:30:23;101046.81;;;34.59;40.32
6974;BME280;3527;52.376;8.990;2022-08-03T13:33:16;101030.63;;;34.75;38.76
6974;BME280;3527;52.376;8.990;2022-08-03T13:36:04;101035.94;;;35.18;37.73
6974;BME280;3527;52.376;8.990;2022-08-03T13:39:04;101022.97;;;34.78;38.52
6974;BME280;3527;52.376;8.990;2022-08-03T13:41:59;101032.50;;;34.72;39.31
6974;BME280;3527;52.376;8.990;2022-08-03T13:44:48;101026.13;;;34.85;38.57
6974;BME280;3527;52.376;8.990;2022-08-03T13:47:35;101033.41;;;35.03;39.04
6974;BME280;3527;52.376;8.990;2022-08-03T13:50:23;101057.56;;;35.22;40.16
6974;BME280;3527;52.376;8.990;2022-08-03T13:53:11;101026.81;;;35.44;38.20
6974;BME280;3527;52.376;8.990;2022-08-03T13:55:59;101046.59;;;35.45;39.14
6974;BME280;3527;52.376;8.990;2022-08-03T13:58:47;101019.22;;;34.94;38.44
6974;BME280;3527;52.376;8.990;2022-08-03T14:01:34;101020.59;;;34.82;39.21
6974;BME280;3527;52.376;8.990;2022-08-03T14:04:41;101005.94;;;35.04;37.34
6974;BME280;3527;52.376;8.990;2022-08-03T14:07:28;101007.06;;;34.37;37.94
6974;BME280;3527;52.376;8.990;2022-08-03T14:10:15;100997.75;;;34.61;37.46
6974;BME280;3527;52.376;8.990;2022-08-03T14:13:04;100968.63;;;34.26;36.70
6974;BME280;3527;52.376;8.990;2022-08-03T14:15:51;100989.72;;;34.15;37.70
6974;BME280;3527;52.376;8.990;2022-08-03T14:18:44;101009.59;;;34.63;38.24
6974;BME280;3527;52.376;8.990;2022-08-03T14:21:32;100996.31;;;34.16;39.01
6974;BME280;3527;52.376;8.990;2022-08-03T14:24:22;101011.44;;;34.66;38.40
6974;BME280;3527;52.376;8.990;2022-08-03T14:27:09;100996.53;;;34.40;38.75
6974;BME280;3527;52.376;8.990;2022-08-03T14:29:56;100999.59;;;34.59;38.17
6974;BME280;3527;52.376;8.990;2022-08-03T14:32:45;101006.34;;;34.78;38.02
6974;BME280;3527;52.376;8.990;2022-08-03T14:35:32;100985.75;;;34.35;37.76
6974;BME280;3527;52.376;8.990;2022-08-03T14:38:21;100983.28;;;34.50;37.57
6974;BME280;3527;52.376;8.990;2022-08-03T14:41:08;100982.25;;;34.48;37.34
6974;BME280;3527;52.376;8.990;2022-08-03T14:44:05;100988.03;;;34.48;38.13
6974;BME280;3527;52.376;8.990;2022-08-03T14:46:55;100979.41;;;34.31;38.80
6974;BME280;3527;52.376;8.990;2022-08-03T14:49:42;100967.75;;;34.53;37.31
6974;BME280;3527;52.376;8.990;2022-08-03T14:52:49;100972.91;;;34.08;38.34
6974;BME280;3527;52.376;8.990;2022-08-03T14:55:36;100973.72;;;33.97;39.16
6974;BME280;3527;52.376;8.990;2022-08-03T14:58:35;100969.41;;;34.21;38.50
6974;BME280;3527;52.376;8.990;2022-08-03T15:01:24;100977.22;;;34.54;37.98
6974;BME280;3527;52.376;8.990;2022-08-03T15:04:33;100976.44;;;34.48;37.93
6974;BME280;3527;52.376;8.990;2022-08-03T15:07:35;100970.94;;;34.44;37.70
6974;BME280;3527;52.376;8.990;2022-08-03T15:10:22;100957.78;;;34.32;37.09
6974;BME280;3527;52.376;8.990;2022-08-03T15:13:26;100959.78;;;34.59;36.43
6974;BME280;3527;52.376;8.990;2022-08-03T15:16:13;100958.47;;;34.60;37.12
6974;BME280;3527;52.376;8.990;2022-08-03T15:19:00;100979.06;;;34.51;38.88
6974;BME280;3527;52.376;8.990;2022-08-03T15:21:50;100984.97;;;34.18;39.79
6974;BME280;3527;52.376;8.990;2022-08-03T15:24:37;100940.56;;;33.87;38.46
6974;BME280;3527;52.376;8.990;2022-08-03T15:27:24;100946.03;;;33.96;38.28
6974;BME280;3527;52.376;8.990;2022-08-03T15:30:12;100968.78;;;34.50;38.60
6974;BME280;3527;52.376;8.990;2022-08-03T15:32:59;100961.09;;;35.05;37.08
6974;BME280;3527;52.376;8.990;2022-08-03T15:35:46;100945.44;;;34.84;36.48
6974;BME280;3527;52.376;8.990;2022-08-03T15:38:33;100944.38;;;34.76;36.90
6974;BME280;3527;52.376;8.990;2022-08-03T15:41:20;100970.47;;;34.87;37.62
6974;BME280;3527;52.376;8.990;2022-08-03T15:44:07;100929.53;;;34.44;36.88
6974;BME280;3527;52.376;8.990;2022-08-03T15:46:55;100949.41;;;34.75;37.44
6974;BME280;3527;52.376;8.990;2022-08-03T15:49:42;100955.72;;;34.79;37.29